Irving, TX

4:43 PM CDT on April 18, 2015 (GMT -0500)
Toler Lane, Irving, Texas USA | | Change Station
CLOSE
Current Station
Personal Weather Station
Location: Irving, TX
Elevation: 551 ft
Nearby Weather Stations

Elev 551 ft 32.84 °N, 96.96 °W | Updated 3 seconds ago

Partly Cloudy
Partly Cloudy
81.9 °F
Feels Like 84 °F
N
0.0
Wind Variable Wind from ESE
Gusts 0.0 mph

Today
High -- | Low -- °F
--% Chance of Precip.
Yesterday
High -- | Low -- °F
Precip. -- in
6:54 AM 8:00 PM
New Moon, 0% visible
Pressure 29.75 in
Visibility 10.0 miles
Clouds Scattered Clouds 4000 ft
Scattered Clouds 15000 ft
Mostly Cloudy 30000 ft
Heat Index 84 °F
Dew Point 65 °F
Humidity 56%
Rainfall 0.00 in
Snow Depth Not available.
UV 4 out of 12
Pollen 8.20 out of 12
Air Quality Not available.
Flu Activity Local Activity
METAR KDFW 182053Z 12006KT 10SM SCT040 SCT150 BKN300 27/17 A2977 RMK AO2 SLP074 T02670167 56034

More Conditions Fewer Conditions

Pressure 29.75 in
Visibility 10.0 miles
Clouds Scattered Clouds 4000 ft
Scattered Clouds 15000 ft
Mostly Cloudy 30000 ft
Heat Index 84 °F
Dew Point 65 °F
Humidity 56%
Rainfall 0.00 in
Snow Depth Not available.
UV 4 out of 12
Pollen 8.20 out of 12
Air Quality Not available.
Flu Activity Local Activity
METAR KDFW 182053Z 12006KT 10SM SCT040 SCT150 BKN300 27/17 A2977 RMK AO2 SLP074 T02670167 56034

More Conditions Fewer Conditions

10-Day Weather Forecast

Almanac

Astronomy

Apr. 18, 2015 Rise Set
Actual Time
Civil Twilight
Nautical Twilight
Astronomical Twilight
Moon
Length of Visible Light
Length of Day
Tomorrow will be .
, % of the Moon is Illuminated

Today's Extremes

State Highs State Lows

Community

WunderPhotos

Upload Photos

1,814,538 photos uploaded!

WunderBlogs® & News

Nearby

Air Quality

  Air Quality AQ Index Pollutant
Not available.

Snow Depth

Station Depth Elevation

Earthquake Activity

City Distance Mag. Time & Date
Minimum magnitude displayed is 2.5.

Coastal Water Temperatures

Place Temperature

Stations

Nearby Weather Stations

Station Location Temp. Windchill Dew Point Humidity Wind Precip. Elev Updated Type